Time;durP1;ratioP1;P1;durP2;ratioP2;P2;SDS_P1;SDS_P2;PMS_P1;PMS_P2;Temp;Humidity;BMP_temperature;BMP_pressure;BME280_temperature;BME280_humidity;BME280_pressure;Samples;Min_cycle;Max_cycle;Signal;HPM_P1;HPM_P2
2023/05/17 00:00:54;;;;;;;9.73;2.05;;;9.20;99.90;;;;;;5040659;28;20041;-91
2023/05/17 00:03:20;;;;;;;11.38;2.47;;;9.10;99.90;;;;;;5057522;28;20037;-91
2023/05/17 00:05:47;;;;;;;14.63;3.05;;;9.00;99.90;;;;;;5073872;28;20056;-91
2023/05/17 00:08:14;;;;;;;15.68;2.65;;;9.00;99.90;;;;;;5082625;28;20224;-91
2023/05/17 00:10:42;;;;;;;15.63;2.75;;;8.90;99.90;;;;;;5077199;28;20102;-91
2023/05/17 00:13:08;;;;;;;14.50;2.72;;;8.80;99.90;;;;;;5094066;28;20059;-91
2023/05/17 00:15:35;;;;;;;13.68;2.50;;;8.80;99.90;;;;;;5060283;28;20036;-90
2023/05/17 00:18:02;;;;;;;18.00;2.80;;;8.70;99.90;;;;;;5076728;28;20040;-90
2023/05/17 00:20:29;;;;;;;11.40;2.65;;;8.70;99.90;;;;;;5093322;28;20504;-90
2023/05/17 00:22:55;;;;;;;10.45;3.08;;;8.60;99.90;;;;;;5076514;28;20062;-90
2023/05/17 00:25:22;;;;;;;10.95;2.30;;;8.60;99.90;;;;;;5060236;28;20063;-91
2023/05/17 00:27:49;;;;;;;16.65;2.38;;;8.60;99.90;;;;;;5092860;28;20079;-91
2023/05/17 00:30:16;;;;;;;14.52;2.47;;;8.60;99.90;;;;;;5059416;28;20127;-90
2023/05/17 00:32:45;;;;;;;15.52;2.28;;;8.60;99.90;;;;;;5073237;28;20081;-91
2023/05/17 00:35:12;;;;;;;14.05;2.38;;;8.70;99.90;;;;;;5060353;28;20115;-91
2023/05/17 00:37:38;;;;;;;11.63;2.70;;;8.70;99.90;;;;;;5059592;28;20131;-90
2023/05/17 00:40:06;;;;;;;16.38;3.00;;;8.70;99.90;;;;;;5076501;28;20400;-91
2023/05/17 00:42:33;;;;;;;15.43;2.63;;;8.70;99.90;;;;;;5076445;28;20090;-90
2023/05/17 00:44:59;;;;;;;12.55;2.17;;;8.70;99.90;;;;;;5076003;28;20825;-91
2023/05/17 00:47:26;;;;;;;13.55;2.67;;;8.70;99.90;;;;;;5059554;28;20485;-91
2023/05/17 00:49:53;;;;;;;12.52;2.40;;;8.60;99.90;;;;;;5075860;28;20041;-92
2023/05/17 00:52:19;;;;;;;12.35;2.35;;;8.50;99.90;;;;;;5059400;28;20044;-91
2023/05/17 00:54:46;;;;;;;16.60;2.28;;;8.60;99.90;;;;;;5075562;28;20033;-91
2023/05/17 00:57:14;;;;;;;13.95;3.13;;;8.50;99.90;;;;;;5059715;28;20127;-90
2023/05/17 00:59:43;;;;;;;17.92;3.05;;;8.50;99.90;;;;;;5075693;28;20048;-90
2023/05/17 01:02:10;;;;;;;19.05;2.40;;;8.50;99.90;;;;;;5108725;28;20052;-91
2023/05/17 01:04:38;;;;;;;15.38;2.97;;;8.50;99.90;;;;;;5075418;28;20044;-91
2023/05/17 01:07:05;;;;;;;16.67;2.30;;;8.40;99.90;;;;;;5081612;28;20068;-91
2023/05/17 01:09:32;;;;;;;18.45;2.85;;;8.50;99.90;;;;;;5072507;28;20572;-90
2023/05/17 01:12:31;;;;;;;15.48;2.85;;;8.40;99.90;;;;;;5039521;28;20128;-91
2023/05/17 01:15:07;;;;;;;17.05;2.75;;;8.40;99.90;;;;;;5085818;28;20041;-91
2023/05/17 01:17:46;;;;;;;;;;;8.30;99.90;;;;;;5072892;28;20045;-91
2023/05/17 01:20:35;;;;;;;20.77;2.35;;;8.30;99.90;;;;;;5087986;28;19916;-91
2023/05/17 01:23:20;;;;;;;14.02;2.55;;;8.30;99.90;;;;;;5091904;28;20805;-91
2023/05/17 01:26:05;;;;;;;10.05;2.20;;;8.30;99.90;;;;;;5092395;28;20036;-91
2023/05/17 01:28:32;;;;;;;18.15;2.83;;;8.20;99.90;;;;;;5078623;28;20147;-91
2023/05/17 01:31:02;;;;;;;19.10;3.78;;;8.20;99.90;;;;;;5055650;28;20044;-90
2023/05/17 01:33:29;;;;;;;15.25;2.30;;;8.10;99.90;;;;;;5055385;28;20405;-91
2023/05/17 01:35:56;;;;;;;14.48;2.45;;;8.10;99.90;;;;;;5054867;28;20044;-91
2023/05/17 01:38:22;;;;;;;15.98;2.42;;;8.10;99.90;;;;;;5063594;28;20040;-91
2023/05/17 01:40:55;;;;;;;13.18;2.45;;;8.00;99.90;;;;;;5075169;28;20563;-90
2023/05/17 01:43:31;;;;;;;12.90;2.42;;;8.00;99.90;;;;;;5092007;28;20039;-91
2023/05/17 01:46:36;;;;;;;14.20;2.47;;;8.00;99.90;;;;;;5091573;28;20048;-91
2023/05/17 01:49:15;;;;;;;8.80;2.30;;;8.00;99.90;;;;;;5090972;28;20049;-89
2023/05/17 01:52:02;;;;;;;14.40;2.38;;;8.00;99.90;;;;;;5088235;28;20056;-91
2023/05/17 01:54:38;;;;;;;17.08;2.75;;;8.00;99.90;;;;;;5071612;28;20044;-91
2023/05/17 01:57:06;;;;;;;9.30;2.67;;;8.00;99.90;;;;;;5071118;28;20558;-90
2023/05/17 01:59:36;;;;;;;12.57;2.42;;;8.00;99.90;;;;;;5068776;28;20036;-90
2023/05/17 02:02:08;;;;;;;10.20;2.50;;;8.00;99.90;;;;;;5075416;28;20045;-90
2023/05/17 02:04:35;;;;;;;10.55;2.13;;;8.00;99.90;;;;;;5091519;28;20093;-90
2023/05/17 02:07:02;;;;;;;10.10;1.65;;;8.00;99.90;;;;;;5091946;28;20033;-90
2023/05/17 02:09:29;;;;;;;14.35;2.70;;;8.00;99.90;;;;;;5081591;28;20045;-90
2023/05/17 02:11:56;;;;;;;14.35;2.47;;;8.00;99.90;;;;;;5055113;28;20098;-90
2023/05/17 02:14:23;;;;;;;7.00;2.10;;;8.00;99.90;;;;;;5038751;28;20033;-90
2023/05/17 02:16:49;;;;;;;14.20;2.13;;;8.00;99.90;;;;;;5038714;28;20055;-89
2023/05/17 02:19:16;;;;;;;12.25;2.28;;;8.00;99.90;;;;;;5039708;28;20033;-90
2023/05/17 02:21:43;;;;;;;14.10;2.60;;;8.00;99.90;;;;;;5062323;28;20037;-90
2023/05/17 02:24:10;;;;;;;12.73;1.98;;;8.00;99.90;;;;;;5058518;28;20048;-91
2023/05/17 02:26:37;;;;;;;7.38;1.40;;;7.90;99.90;;;;;;5074512;28;20036;-91
2023/05/17 02:29:03;;;;;;;14.48;3.97;;;7.90;99.90;;;;;;5074560;28;20075;-90
2023/05/17 02:31:30;;;;;;;14.77;2.25;;;7.90;99.90;;;;;;5059475;28;20116;-91
2023/05/17 02:33:57;;;;;;;8.50;1.60;;;7.90;99.90;;;;;;5078815;28;20051;-91
2023/05/17 02:36:24;;;;;;;12.95;2.15;;;7.90;99.90;;;;;;5062340;28;20485;-91
2023/05/17 02:38:50;;;;;;;13.30;2.00;;;7.90;99.90;;;;;;5078689;28;20037;-91
2023/05/17 02:41:17;;;;;;;13.38;3.20;;;7.90;99.90;;;;;;5078127;28;20055;-91
2023/05/17 02:43:44;;;;;;;9.57;1.70;;;8.00;99.90;;;;;;5062428;28;20552;-91
2023/05/17 02:46:11;;;;;;;9.95;1.40;;;8.00;99.90;;;;;;5061634;28;20041;-91
2023/05/17 02:48:37;;;;;;;14.80;2.22;;;8.00;99.90;;;;;;5078417;28;20052;-91
2023/05/17 02:51:04;;;;;;;15.98;1.95;;;8.10;99.90;;;;;;5078402;28;20047;-90
2023/05/17 02:53:31;;;;;;;11.05;2.22;;;8.00;99.90;;;;;;5078745;28;20127;-88
2023/05/17 02:55:58;;;;;;;15.23;2.65;;;8.10;99.90;;;;;;5061520;28;20041;-91
2023/05/17 02:58:25;;;;;;;7.60;2.10;;;8.00;99.90;;;;;;5078264;28;20041;-90
2023/05/17 03:00:51;;;;;;;8.63;2.20;;;8.00;99.90;;;;;;5090285;28;20496;-91
2023/05/17 03:03:18;;;;;;;12.98;1.92;;;8.00;99.90;;;;;;5074346;28;20128;-90
2023/05/17 03:05:45;;;;;;;12.50;2.10;;;8.00;99.90;;;;;;5058198;28;20040;-90
2023/05/17 03:08:11;;;;;;;12.10;2.70;;;8.00;99.90;;;;;;5057979;28;20045;-90
2023/05/17 03:10:38;;;;;;;12.18;2.22;;;8.00;99.90;;;;;;5058410;28;20512;-91
2023/05/17 03:13:05;;;;;;;12.70;2.38;;;8.00;99.90;;;;;;5059438;28;20036;-91
2023/05/17 03:15:31;;;;;;;13.05;2.20;;;8.00;99.90;;;;;;5078009;28;20046;-90
2023/05/17 03:18:04;;;;;;;14.23;2.05;;;8.00;99.90;;;;;;5063968;28;20047;-90
2023/05/17 03:20:31;;;;;;;11.05;1.98;;;8.00;99.90;;;;;;5078194;28;20040;-90
2023/05/17 03:22:57;;;;;;;10.45;1.98;;;8.00;99.90;;;;;;5051613;28;20052;-87
2023/05/17 03:25:24;;;;;;;10.07;1.65;;;8.00;99.90;;;;;;5061181;28;20131;-90
2023/05/17 03:27:51;;;;;;;12.45;1.70;;;8.10;99.90;;;;;;5060609;28;20047;-89
2023/05/17 03:30:18;;;;;;;10.65;2.25;;;8.10;99.90;;;;;;5077334;28;20034;-89
2023/05/17 03:32:44;;;;;;;8.57;1.88;;;8.10;99.90;;;;;;5077167;28;20490;-90
2023/05/17 03:35:11;;;;;;;6.85;1.50;;;8.10;99.90;;;;;;5043130;28;20037;-90
2023/05/17 03:37:38;;;;;;;9.93;1.60;;;8.10;99.90;;;;;;5077766;28;20044;-90
2023/05/17 03:40:05;;;;;;;8.52;1.40;;;8.10;99.90;;;;;;5077670;28;20055;-90
2023/05/17 03:42:31;;;;;;;9.55;1.50;;;8.10;99.90;;;;;;5076742;28;20052;-90
2023/05/17 03:44:59;;;;;;;7.05;1.45;;;8.10;99.90;;;;;;5060726;28;20051;-91
2023/05/17 03:47:26;;;;;;;11.90;1.80;;;8.10;99.90;;;;;;5077375;28;20050;-90
2023/05/17 03:49:53;;;;;;;7.72;1.77;;;8.10;99.90;;;;;;5076779;28;20503;-90
2023/05/17 03:52:19;;;;;;;7.70;1.48;;;8.10;99.90;;;;;;5060804;28;20554;-90
2023/05/17 03:54:46;;;;;;;9.52;2.55;;;8.20;99.90;;;;;;5077307;28;20040;-90
2023/05/17 03:57:13;;;;;;;6.53;1.42;;;8.20;99.90;;;;;;5060410;28;20055;-91
2023/05/17 03:59:39;;;;;;;9.63;1.40;;;8.20;99.90;;;;;;5061032;28;20572;-90
2023/05/17 04:02:06;;;;;;;7.50;1.73;;;8.20;99.90;;;;;;5060038;28;20044;-91
2023/05/17 04:04:33;;;;;;;10.18;1.65;;;8.20;99.90;;;;;;5072297;28;20463;-90
2023/05/17 04:07:00;;;;;;;6.80;1.52;;;8.20;99.90;;;;;;5040087;28;20049;-89
2023/05/17 04:09:26;;;;;;;6.20;1.30;;;8.30;99.90;;;;;;5040304;28;20041;-90
2023/05/17 04:11:53;;;;;;;10.07;1.77;;;8.20;99.90;;;;;;5040869;28;20044;-91
2023/05/17 04:14:21;;;;;;;6.78;1.10;;;8.30;99.90;;;;;;5040261;28;20053;-90
2023/05/17 04:16:47;;;;;;;9.10;1.95;;;8.30;99.90;;;;;;5040710;28;20041;-90
2023/05/17 04:19:14;;;;;;;9.20;1.58;;;8.30;99.90;;;;;;5040273;28;20051;-90
2023/05/17 04:21:41;;;;;;;7.43;1.65;;;8.30;99.90;;;;;;5056721;28;20068;-90
2023/05/17 04:24:07;;;;;;;10.32;1.48;;;8.40;99.90;;;;;;5056785;28;20043;-90
2023/05/17 04:26:34;;;;;;;5.30;1.10;;;8.40;99.90;;;;;;5056034;28;20094;-90
2023/05/17 04:29:01;;;;;;;6.88;1.50;;;8.40;99.90;;;;;;5056256;28;20124;-89
2023/05/17 04:31:27;;;;;;;9.68;1.58;;;8.50;99.90;;;;;;5056075;28;20051;-90
2023/05/17 04:33:54;;;;;;;11.85;1.60;;;8.50;99.90;;;;;;5073237;28;20033;-90
2023/05/17 04:36:21;;;;;;;6.95;1.52;;;8.50;99.90;;;;;;5045353;28;20033;-91
2023/05/17 04:38:48;;;;;;;7.50;3.25;;;8.60;99.90;;;;;;5058961;28;20043;-91
2023/05/17 04:41:15;;;;;;;11.45;2.20;;;8.60;99.90;;;;;;5075938;28;20071;-90
2023/05/17 04:43:41;;;;;;;7.35;1.40;;;8.70;99.90;;;;;;5092595;28;20401;-89
2023/05/17 04:46:08;;;;;;;8.90;1.50;;;8.70;99.90;;;;;;5059375;28;20036;-91
2023/05/17 04:48:35;;;;;;;9.80;1.70;;;8.70;99.90;;;;;;5039232;28;20251;-90
2023/05/17 04:51:06;;;;;;;11.15;1.80;;;8.80;99.90;;;;;;5056131;28;20041;-90
2023/05/17 04:53:32;;;;;;;8.07;1.42;;;8.70;99.90;;;;;;5056322;28;20033;-91
2023/05/17 04:55:59;;;;;;;9.10;1.50;;;8.80;99.90;;;;;;5039781;28;20036;-90
2023/05/17 04:58:26;;;;;;;11.60;1.70;;;8.80;99.90;;;;;;5057185;28;20439;-91
2023/05/17 05:00:52;;;;;;;6.28;1.20;;;8.90;99.90;;;;;;5059860;28;20443;-90
2023/05/17 05:03:21;;;;;;;8.60;1.48;;;8.90;99.90;;;;;;5092221;28;20044;-91
2023/05/17 05:05:48;;;;;;;6.28;1.45;;;8.80;99.90;;;;;;5075908;28;20382;-90
2023/05/17 05:08:14;;;;;;;10.77;1.63;;;8.80;99.90;;;;;;5063099;28;20052;-91
2023/05/17 05:10:42;;;;;;;9.13;1.15;;;8.80;99.90;;;;;;5039475;28;20123;-90
2023/05/17 05:13:09;;;;;;;8.82;1.60;;;8.90;99.90;;;;;;5055307;28;20087;-89
2023/05/17 05:15:36;;;;;;;6.55;1.63;;;8.80;99.90;;;;;;5054971;28;20040;-89
2023/05/17 05:18:03;;;;;;;7.60;1.70;;;8.80;99.90;;;;;;5055638;28;20084;-90
2023/05/17 05:20:30;;;;;;;8.00;1.20;;;8.80;99.90;;;;;;5071244;28;20103;-90
2023/05/17 05:22:59;;;;;;;7.57;1.45;;;8.80;99.90;;;;;;5055447;28;20044;-89
2023/05/17 05:25:26;;;;;;;7.50;1.70;;;8.80;99.90;;;;;;5054836;28;20501;-90
2023/05/17 05:27:53;;;;;;;11.88;1.52;;;8.90;99.90;;;;;;5055239;28;20130;-89
2023/05/17 05:30:22;;;;;;;7.75;1.40;;;8.90;99.90;;;;;;5054606;28;20671;-90
2023/05/17 05:32:50;;;;;;;13.77;2.17;;;8.90;99.90;;;;;;5055786;28;20459;-89
2023/05/17 05:35:17;;;;;;;14.38;1.60;;;8.90;99.90;;;;;;5087544;28;20074;-90
2023/05/17 05:37:44;;;;;;;7.07;1.48;;;8.90;99.90;;;;;;5091368;28;20106;-90
2023/05/17 05:40:12;;;;;;;10.32;1.48;;;8.90;99.90;;;;;;5075654;28;20041;-90
2023/05/17 05:42:39;;;;;;;9.82;1.50;;;8.90;99.90;;;;;;5038563;28;20083;-90
2023/05/17 05:45:07;;;;;;;12.68;1.67;;;8.90;99.90;;;;;;5055488;28;20450;-90
2023/05/17 05:47:33;;;;;;;9.00;1.42;;;8.90;99.90;;;;;;5055508;28;20040;-90
2023/05/17 05:50:00;;;;;;;10.27;1.83;;;8.90;99.90;;;;;;5073530;28;20045;-90
2023/05/17 05:52:30;;;;;;;9.43;1.80;;;8.90;99.90;;;;;;5072074;28;20049;-90
2023/05/17 05:54:57;;;;;;;9.18;1.70;;;8.90;99.90;;;;;;5071367;28;20043;-92
2023/05/17 05:57:24;;;;;;;9.07;1.60;;;8.90;99.90;;;;;;5072016;28;20044;-92
2023/05/17 05:59:50;;;;;;;11.68;1.65;;;8.90;99.90;;;;;;5072125;28;20048;-92
2023/05/17 06:02:18;;;;;;;8.48;1.63;;;8.80;99.90;;;;;;5055744;28;20118;-92
2023/05/17 06:04:48;;;;;;;11.85;1.52;;;8.80;99.90;;;;;;5055381;28;20114;-92
2023/05/17 06:07:15;;;;;;;11.02;1.85;;;8.80;99.90;;;;;;5054627;28;20067;-92
2023/05/17 06:09:42;;;;;;;6.88;1.30;;;8.80;99.90;;;;;;5039328;28;20037;-92
2023/05/17 06:12:09;;;;;;;10.95;1.92;;;8.80;99.90;;;;;;5055691;28;20072;-92
2023/05/17 06:14:37;;;;;;;13.25;1.65;;;8.90;99.90;;;;;;5054853;28;20076;-92
2023/05/17 06:17:04;;;;;;;8.95;1.65;;;9.00;99.90;;;;;;5054961;28;20524;-92
2023/05/17 06:19:30;;;;;;;14.45;1.85;;;9.10;99.90;;;;;;5071423;28;20045;-92
2023/05/17 06:21:57;;;;;;;17.05;1.92;;;9.10;99.90;;;;;;5091094;28;20416;-92
2023/05/17 06:24:24;;;;;;;11.50;1.67;;;9.20;99.90;;;;;;5074767;28;20404;-92
2023/05/17 06:26:50;;;;;;;6.55;1.48;;;9.20;99.90;;;;;;5075204;28;20825;-93
2023/05/17 06:29:17;;;;;;;7.47;1.73;;;9.30;99.90;;;;;;5058987;28;20103;-93
2023/05/17 06:31:44;;;;;;;7.75;1.55;;;9.30;99.90;;;;;;5063342;28;20037;-94
2023/05/17 06:34:10;;;;;;;8.77;1.90;;;9.30;99.90;;;;;;5038744;28;20037;-88
2023/05/17 06:36:37;;;;;;;9.82;2.22;;;9.30;99.90;;;;;;5053146;28;20041;-81
2023/05/17 06:39:04;;;;;;;13.45;2.10;;;9.30;99.90;;;;;;5053418;28;20045;-89
2023/05/17 06:41:30;;;;;;;9.93;1.80;;;9.30;99.90;;;;;;5054636;28;20041;-88
2023/05/17 06:43:57;;;;;;;15.18;2.00;;;9.30;99.90;;;;;;5038705;28;20564;-90
2023/05/17 06:46:24;;;;;;;8.55;1.75;;;9.30;99.90;;;;;;5037962;28;20394;-87
2023/05/17 06:48:51;;;;;;;8.23;1.55;;;9.30;99.90;;;;;;5053703;28;20567;-81
2023/05/17 06:51:17;;;;;;;9.50;1.77;;;9.30;99.90;;;;;;5052863;28;20048;-80
2023/05/17 06:53:44;;;;;;;11.57;2.20;;;9.30;99.90;;;;;;5064262;28;20063;-85
2023/05/17 06:56:11;;;;;;;11.30;1.85;;;9.30;99.90;;;;;;5057065;28;20106;-85
2023/05/17 06:58:37;;;;;;;7.90;1.80;;;9.30;99.90;;;;;;5072792;28;20037;-85
2023/05/17 07:01:04;;;;;;;10.25;1.80;;;9.40;99.90;;;;;;5073454;28;20040;-88
2023/05/17 07:03:31;;;;;;;12.15;2.45;;;9.40;99.90;;;;;;5057387;28;20052;-88
2023/05/17 07:05:58;;;;;;;8.60;2.20;;;9.40;99.90;;;;;;5055423;28;20102;-87
2023/05/17 07:08:25;;;;;;;12.55;2.38;;;9.60;99.90;;;;;;5070008;28;20489;-87
2023/05/17 07:10:52;;;;;;;11.63;2.08;;;9.70;99.90;;;;;;5053213;28;20064;-87
2023/05/17 07:13:19;;;;;;;11.90;1.80;;;9.80;99.90;;;;;;5055950;28;20043;-87
2023/05/17 07:15:46;;;;;;;15.18;2.08;;;9.90;99.90;;;;;;5048176;28;20569;-87
2023/05/17 07:18:12;;;;;;;9.77;2.03;;;10.00;99.90;;;;;;5055717;28;20120;-87
2023/05/17 07:20:39;;;;;;;11.52;1.50;;;10.10;99.90;;;;;;5057152;28;20049;-87
2023/05/17 07:23:06;;;;;;;10.20;1.70;;;10.10;99.90;;;;;;5057493;28;20048;-88
2023/05/17 07:25:33;;;;;;;12.77;1.75;;;10.20;99.90;;;;;;5056992;28;20048;-88
2023/05/17 07:27:59;;;;;;;8.32;1.90;;;10.40;99.90;;;;;;5041682;28;20048;-87
2023/05/17 07:30:26;;;;;;;6.80;1.30;;;10.60;99.90;;;;;;5057057;28;20041;-87
2023/05/17 07:32:53;;;;;;;9.27;1.48;;;10.60;99.90;;;;;;5057528;28;20037;-87
2023/05/17 07:35:20;;;;;;;11.10;1.67;;;10.70;99.90;;;;;;5070693;28;20151;-88
2023/05/17 07:37:46;;;;;;;10.43;1.83;;;10.80;99.90;;;;;;5044465;28;20794;-88
2023/05/17 07:40:13;;;;;;;9.20;1.40;;;10.90;99.90;;;;;;5073185;28;20041;-88
2023/05/17 07:42:40;;;;;;;13.27;1.73;;;10.90;99.90;;;;;;5056503;28;20048;-87
2023/05/17 07:45:07;;;;;;;7.57;1.75;;;10.90;99.90;;;;;;5064878;28;20074;-88
2023/05/17 07:47:34;;;;;;;11.55;1.67;;;10.80;99.90;;;;;;5076472;28;20044;-88
2023/05/17 07:50:01;;;;;;;16.05;2.55;;;10.70;99.90;;;;;;5060325;28;20049;-88
2023/05/17 07:52:28;;;;;;;5.05;1.40;;;10.60;99.90;;;;;;5076851;28;20076;-88
2023/05/17 07:54:56;;;;;;;28.98;1.90;;;10.60;99.90;;;;;;5057800;28;20072;-87
2023/05/17 07:57:23;;;;;;;11.65;1.75;;;10.60;99.90;;;;;;5072701;28;20032;-87
2023/05/17 07:59:50;;;;;;;8.88;1.77;;;10.60;99.90;;;;;;5073941;28;20047;-88
2023/05/17 08:02:17;;;;;;;11.68;1.52;;;10.70;99.90;;;;;;5076954;28;20032;-87
2023/05/17 08:04:44;;;;;;;10.60;1.90;;;10.80;99.90;;;;;;5093212;28;20040;-87
2023/05/17 08:07:10;;;;;;;9.88;1.63;;;10.80;99.90;;;;;;5060113;28;20492;-88
2023/05/17 08:09:39;;;;;;;10.43;1.40;;;10.80;99.90;;;;;;5059800;28;20070;-89
2023/05/17 08:12:05;;;;;;;8.90;1.95;;;10.90;99.90;;;;;;5073498;28;20059;-89
2023/05/17 08:14:35;;;;;;;9.23;1.70;;;10.90;99.90;;;;;;5073719;28;20036;-89
2023/05/17 08:17:01;;;;;;;6.68;1.60;;;10.80;99.90;;;;;;5040670;28;20033;-87
2023/05/17 08:19:28;;;;;;;11.27;1.60;;;10.80;99.90;;;;;;5043306;28;20393;-90
2023/05/17 08:21:55;;;;;;;9.18;1.88;;;10.90;99.90;;;;;;5081332;28;20040;-91
2023/05/17 08:24:21;;;;;;;11.98;2.10;;;10.90;99.90;;;;;;5057187;28;20036;-91
2023/05/17 08:26:48;;;;;;;8.40;1.65;;;11.00;99.90;;;;;;5040007;28;20551;-91
2023/05/17 08:29:15;;;;;;;8.20;1.60;;;11.10;99.90;;;;;;5039709;28;20128;-91
2023/05/17 08:31:41;;;;;;;5.82;1.23;;;11.20;99.90;;;;;;5060821;28;20032;-91
2023/05/17 08:34:08;;;;;;;8.25;2.03;;;11.20;99.90;;;;;;5075872;28;20043;-91
2023/05/17 08:36:35;;;;;;;5.32;1.13;;;11.30;99.90;;;;;;5076306;28;20523;-91
2023/05/17 08:39:02;;;;;;;9.48;1.80;;;11.40;99.90;;;;;;5076435;28;20439;-90
2023/05/17 08:41:30;;;;;;;9.45;1.73;;;11.50;99.90;;;;;;5076599;28;20047;-90
2023/05/17 08:43:57;;;;;;;7.70;1.50;;;11.70;99.90;;;;;;5092540;28;20037;-91
2023/05/17 08:46:28;;;;;;;7.35;1.30;;;11.70;99.90;;;;;;5093807;28;20052;-91
2023/05/17 08:48:58;;;;;;;6.22;1.40;;;11.70;99.90;;;;;;5075363;28;20507;-91
2023/05/17 08:51:26;;;;;;;8.93;1.50;;;11.90;99.90;;;;;;5092486;28;20097;-90
2023/05/17 08:53:53;;;;;;;6.32;1.50;;;12.10;99.90;;;;;;5043663;28;20045;-91
2023/05/17 08:56:24;;;;;;;6.90;1.15;;;12.20;99.90;;;;;;5056197;28;20048;-91
2023/05/17 08:58:55;;;;;;;6.57;1.23;;;12.10;99.90;;;;;;5071984;28;20041;-90
2023/05/17 09:01:23;;;;;;;6.68;1.40;;;12.00;99.90;;;;;;5039530;28;20777;-91
2023/05/17 09:03:49;;;;;;;11.65;1.60;;;11.80;99.90;;;;;;5064920;28;20044;-86
2023/05/17 09:06:20;;;;;;;9.77;1.70;;;11.70;99.90;;;;;;5074171;28;20052;-87
2023/05/17 09:08:51;;;;;;;9.40;1.75;;;11.60;99.90;;;;;;5090681;28;20045;-87
2023/05/17 09:11:44;;;;;;;6.97;1.73;;;11.60;99.90;;;;;;5091181;28;20043;-87
2023/05/17 09:14:11;;;;;;;6.32;1.35;;;11.50;99.90;;;;;;5087065;28;20044;-87
2023/05/17 09:16:37;;;;;;;12.75;1.60;;;11.40;99.90;;;;;;5074450;28;20382;-87
2023/05/17 09:19:05;;;;;;;9.07;1.60;;;11.40;99.90;;;;;;5074885;28;20044;-87
2023/05/17 09:21:33;;;;;;;7.85;1.52;;;11.40;99.90;;;;;;5090656;28;20040;-87
2023/05/17 09:24:00;;;;;;;6.88;1.30;;;11.40;99.90;;;;;;5084848;28;20036;-88
2023/05/17 09:26:45;;;;;;;6.88;1.60;;;11.50;99.90;;;;;;5070671;28;20041;-87
2023/05/17 09:29:13;;;;;;;6.07;1.60;;;11.60;99.90;;;;;;5054439;28;20041;-87
2023/05/17 09:31:41;;;;;;;6.72;1.40;;;11.60;99.90;;;;;;5071071;28;20044;-87
2023/05/17 09:34:08;;;;;;;10.13;2.17;;;11.50;99.90;;;;;;5081795;28;20119;-87
2023/05/17 09:36:36;;;;;;;6.93;1.20;;;11.50;99.90;;;;;;5090105;28;20396;-87
2023/05/17 09:39:05;;;;;;;6.35;1.30;;;11.60;99.90;;;;;;5057873;28;20045;-86
2023/05/17 09:41:40;;;;;;;7.82;1.80;;;11.60;99.90;;;;;;5069485;28;20045;-87
2023/05/17 09:44:08;;;;;;;7.40;1.20;;;11.70;99.90;;;;;;5056856;28;20077;-87
2023/05/17 09:46:37;;;;;;;8.27;1.70;;;11.80;99.90;;;;;;5073588;28;20040;-86
2023/05/17 09:49:05;;;;;;;9.10;1.40;;;11.90;99.90;;;;;;5069869;28;20138;-87
2023/05/17 09:51:32;;;;;;;7.15;1.38;;;12.00;99.90;;;;;;5039626;28;20043;-87
2023/05/17 09:53:59;;;;;;;7.60;1.70;;;12.10;99.90;;;;;;5070610;28;20045;-85
2023/05/17 09:56:30;;;;;;;11.63;1.80;;;12.20;99.90;;;;;;5037741;28;20064;-85
2023/05/17 09:58:59;;;;;;;12.05;1.80;;;12.20;99.90;;;;;;5037656;28;20397;-85
2023/05/17 10:01:28;;;;;;;9.80;1.50;;;12.40;99.90;;;;;;5070516;28;20044;-84
2023/05/17 10:04:00;;;;;;;7.15;1.45;;;12.50;99.90;;;;;;5074690;28;20068;-85
2023/05/17 10:06:29;;;;;;;10.10;1.75;;;12.50;99.90;;;;;;5070163;28;20131;-84
2023/05/17 10:08:57;;;;;;;4.97;1.33;;;12.60;99.90;;;;;;5089691;28;20041;-84
2023/05/17 10:11:33;;;;;;;8.68;1.27;;;12.70;99.90;;;;;;5074665;28;20409;-85
2023/05/17 10:14:21;;;;;;;11.65;2.30;;;12.60;99.90;;;;;;5069000;28;20076;-80
2023/05/17 10:16:49;;;;;;;5.85;1.55;;;12.80;99.90;;;;;;5068831;28;20037;-83
2023/05/17 10:19:18;;;;;;;8.52;1.75;;;12.80;99.90;;;;;;5053674;28;20143;-84
2023/05/17 10:21:47;;;;;;;10.88;1.60;;;12.90;99.90;;;;;;5069062;28;20045;-84
2023/05/17 10:24:15;;;;;;;6.80;1.40;;;12.80;99.90;;;;;;5069275;28;20404;-84
2023/05/17 10:26:43;;;;;;;6.93;1.27;;;12.90;99.90;;;;;;5053404;28;20049;-84
2023/05/17 10:29:10;;;;;;;3.78;1.33;;;13.00;99.90;;;;;;5070999;28;20547;-84
2023/05/17 10:31:39;;;;;;;5.95;1.20;;;13.10;99.90;;;;;;5089315;28;20472;-82
2023/05/17 10:34:08;;;;;;;8.23;1.73;;;13.20;99.90;;;;;;5088366;28;20040;-84
2023/05/17 10:36:36;;;;;;;7.72;1.33;;;13.10;99.90;;;;;;5086018;28;20048;-84
2023/05/17 10:39:06;;;;;;;5.05;1.30;;;12.90;99.90;;;;;;5100026;28;20040;-85
2023/05/17 10:41:34;;;;;;;6.70;1.45;;;12.70;99.90;;;;;;5073260;28;20047;-86
2023/05/17 10:44:04;;;;;;;5.32;1.35;;;12.40;99.90;;;;;;5056373;28;20127;-84
2023/05/17 10:46:31;;;;;;;7.35;1.40;;;12.30;99.90;;;;;;5090167;28;20050;-85
2023/05/17 10:48:59;;;;;;;9.10;1.70;;;12.30;99.90;;;;;;5055675;28;20507;-84
2023/05/17 10:51:36;;;;;;;9.50;1.48;;;12.30;99.90;;;;;;5088636;28;20040;-82
2023/05/17 10:54:17;;;;;;;7.80;1.52;;;12.40;99.90;;;;;;5094239;28;20076;-87
2023/05/17 10:56:51;;;;;;;6.20;1.58;;;12.40;99.90;;;;;;5094036;28;20127;-87
2023/05/17 10:59:26;;;;;;;8.15;1.45;;;12.40;99.90;;;;;;5065601;28;20068;-86
2023/05/17 11:02:07;;;;;;;7.72;1.48;;;12.20;99.90;;;;;;5067980;28;20057;-86
2023/05/17 11:04:39;;;;;;;8.23;1.50;;;12.00;99.90;;;;;;5094194;28;20040;-87
2023/05/17 11:07:25;;;;;;;11.45;1.42;;;11.90;99.90;;;;;;5077843;28;20586;-87
2023/05/17 11:09:58;;;;;;;;;;;11.90;99.90;;;;;;5093820;28;20084;-86
2023/05/17 11:12:34;;;;;;;8.20;1.60;;;11.80;99.90;;;;;;5093262;28;19920;-87
2023/05/17 11:15:07;;;;;;;7.38;1.30;;;11.70;99.90;;;;;;5092843;28;20104;-87
2023/05/17 11:17:53;;;;;;;8.02;1.42;;;11.70;99.90;;;;;;5093435;28;20055;-87
2023/05/17 11:20:23;;;;;;;7.13;1.85;;;11.70;99.90;;;;;;5091021;28;20485;-87
2023/05/17 11:22:59;;;;;;;10.00;1.40;;;11.80;99.90;;;;;;5073114;28;20045;-86
2023/05/17 11:25:34;;;;;;;9.60;1.63;;;11.90;99.90;;;;;;5073593;28;20508;-87
2023/05/17 11:28:09;;;;;;;10.02;1.50;;;12.10;99.90;;;;;;5072947;28;20037;-86
2023/05/17 11:30:40;;;;;;;6.10;1.40;;;12.20;99.90;;;;;;5057063;28;20041;-87
2023/05/17 11:33:07;;;;;;;7.38;1.38;;;12.20;99.90;;;;;;5073386;28;20052;-87
2023/05/17 11:35:40;;;;;;;6.93;1.40;;;12.30;99.90;;;;;;5054604;28;20405;-87
2023/05/17 11:38:17;;;;;;;9.63;1.80;;;12.40;99.90;;;;;;5074858;28;20045;-86
2023/05/17 11:40:55;;;;;;;6.25;1.23;;;12.40;99.90;;;;;;5057260;28;20041;-85
2023/05/17 11:43:24;;;;;;;7.93;1.52;;;12.60;99.90;;;;;;5074856;28;20048;-85
2023/05/17 11:45:52;;;;;;;6.47;1.40;;;12.60;99.90;;;;;;5087374;28;20618;-85
2023/05/17 11:48:21;;;;;;;5.50;1.70;;;12.60;99.90;;;;;;5073451;28;20044;-85
2023/05/17 11:50:49;;;;;;;7.75;1.50;;;12.70;99.90;;;;;;5056513;28;20162;-85
2023/05/17 11:53:17;;;;;;;8.35;1.30;;;12.70;99.90;;;;;;5056594;28;20049;-85
2023/05/17 11:55:49;;;;;;;5.03;1.30;;;12.90;99.90;;;;;;5056637;28;20055;-85
2023/05/17 11:58:19;;;;;;;10.30;1.50;;;13.00;99.40;;;;;;5072576;28;20688;-85
2023/05/17 12:00:52;;;;;;;10.50;1.95;;;13.00;99.90;;;;;;5089357;28;20045;-85
2023/05/17 12:03:21;;;;;;;13.23;1.63;;;13.00;99.90;;;;;;5071618;28;20051;-85
2023/05/17 12:05:50;;;;;;;9.40;1.35;;;12.90;99.90;;;;;;5086708;28;20509;-85
2023/05/17 12:08:18;;;;;;;10.10;1.70;;;12.80;99.90;;;;;;5073042;28;20447;-85
2023/05/17 12:10:48;;;;;;;14.85;2.25;;;12.80;99.90;;;;;;5056555;28;20485;-87
2023/05/17 12:13:15;;;;;;;8.50;1.70;;;12.70;99.90;;;;;;5072217;28;20574;-86
2023/05/17 12:15:54;;;;;;;8.98;1.83;;;12.70;99.90;;;;;;5073293;28;20468;-86
2023/05/17 12:18:21;;;;;;;9.60;1.60;;;12.70;99.90;;;;;;5072072;28;20037;-86
2023/05/17 12:20:55;;;;;;;5.55;1.45;;;12.70;99.90;;;;;;5072043;28;20843;-86
2023/05/17 12:23:29;;;;;;;10.30;2.00;;;12.70;99.90;;;;;;5071818;28;20041;-86
2023/05/17 12:26:09;;;;;;;6.60;1.40;;;12.70;99.90;;;;;;5082018;28;20040;-87
2023/05/17 12:28:38;;;;;;;10.43;1.92;;;12.70;99.90;;;;;;5092063;28;20127;-86
2023/05/17 12:31:09;;;;;;;9.32;2.00;;;12.80;99.90;;;;;;5090367;28;20054;-86
2023/05/17 12:33:39;;;;;;;5.13;1.40;;;12.80;99.90;;;;;;5072425;28;20098;-87
2023/05/17 12:36:08;;;;;;;8.32;1.85;;;12.70;99.90;;;;;;5055690;28;20072;-86
2023/05/17 12:38:36;;;;;;;7.55;1.95;;;12.70;99.90;;;;;;5083319;28;20041;-86
2023/05/17 12:41:04;;;;;;;9.57;1.70;;;12.80;99.90;;;;;;5108244;28;20048;-86
2023/05/17 12:43:36;;;;;;;9.48;2.15;;;12.70;99.90;;;;;;5075672;28;20512;-86
2023/05/17 12:46:08;;;;;;;6.07;1.80;;;12.70;99.90;;;;;;5086263;28;20052;-86
2023/05/17 12:48:42;;;;;;;8.45;2.05;;;12.70;99.90;;;;;;5071859;28;20045;-85
2023/05/17 12:51:17;;;;;;;7.10;1.50;;;12.60;99.90;;;;;;5071807;28;20493;-86
2023/05/17 12:53:51;;;;;;;8.70;1.33;;;12.80;99.90;;;;;;5088266;28;20052;-86
2023/05/17 12:56:23;;;;;;;9.50;1.73;;;13.00;99.90;;;;;;5071938;28;20280;-86